Hauptseite
METAR-TAF:

METAR-TAF

Flughäfen :

Flughafen Guernsey

Guernsey,

Breite: 49-26N, Länge: 002-36W, Höhe: 102 m

Beobachtung

Neuester Wetterbericht von vor 34 Minuten, um 13:20 UTC
Wind 9 kt aus West/Nordwest
Temperatur 14°C
Luftfeuchtigkeit 72%
Luftdruck 1018 hPa
Sichtweite 10 km oder mehr
Leicht bewölkt in der Höhe von 300 ft

METAR: EGJB 231320Z 29009KT 9999 FEW003 14/09 Q1018

Zeit: 14:54 (13:54 UTC)

Prognose

Neuester Wetterbericht von vor 2 Stunden und 55 Minuten, um 10:59 UTC
Gültige Prognose vom 23 um 12 UTC bis 23 um 21 UTC
Wind 6 kt aus West/Nordwest
Sichtweite 10 km oder mehr
keine Wolken unter 1500 m und keine Kumulonimbus oder Gewitterwolken

TAF: EGJB 231059Z 2312/2321 29006KT CAVOK

Wetterbeobachtungen und Prognosen von mehr als 4000 Flughäfen (METAR und TAF Bericht).

Die verfügbaren Stationen werden durch gelbe und rote Markierungen auf der Karte dargestellt.

Führen Sie die Maus auf sie, um den Namen der Station zu sehen.

Darauf klicken, um die Beobachtung von Wetterbeobachtungen und Prognosen zu sehen.

Um die Karte zu ändern : klicken Sie auf den grünen Tasten mit einem schwarzen Kreuz Zum Vergrößern, auf den grünen Button mit einem Gedankenstrich zu verkleinern, oder auf die grünen Pfeile für benachbarte Karten.


METAR-TAF: